sensor_id;sensor_type;location;lat;lon;timestamp;temperature;humidity
8850;DHT22;5638;50.860;4.698;2022-09-21T00:03:43;12.80;99.90
8850;DHT22;5638;50.860;4.698;2022-09-21T00:06:15;12.70;99.90
8850;DHT22;5638;50.860;4.698;2022-09-21T00:08:44;12.60;99.90
8850;DHT22;5638;50.860;4.698;2022-09-21T00:11:19;12.60;99.90
8850;DHT22;5638;50.860;4.698;2022-09-21T00:13:57;12.60;99.90
8850;DHT22;5638;50.860;4.698;2022-09-21T00:16:25;12.50;99.90
8850;DHT22;5638;50.860;4.698;2022-09-21T00:18:53;12.50;99.90
8850;DHT22;5638;50.860;4.698;2022-09-21T00:21:20;12.50;99.90
8850;DHT22;5638;50.860;4.698;2022-09-21T00:23:46;12.40;99.90
8850;DHT22;5638;50.860;4.698;2022-09-21T00:26:24;12.40;99.90
8850;DHT22;5638;50.860;4.698;2022-09-21T00:28:53;12.50;99.90
8850;DHT22;5638;50.860;4.698;2022-09-21T00:31:21;12.60;99.90
8850;DHT22;5638;50.860;4.698;2022-09-21T00:33:48;12.60;99.90
8850;DHT22;5638;50.860;4.698;2022-09-21T00:36:17;12.50;99.90
8850;DHT22;5638;50.860;4.698;2022-09-21T00:38:48;12.60;99.90
8850;DHT22;5638;50.860;4.698;2022-09-21T00:41:16;12.60;99.90
8850;DHT22;5638;50.860;4.698;2022-09-21T00:43:45;12.60;99.90
8850;DHT22;5638;50.860;4.698;2022-09-21T00:46:28;12.60;99.90
8850;DHT22;5638;50.860;4.698;2022-09-21T00:48:56;12.50;99.90
8850;DHT22;5638;50.860;4.698;2022-09-21T00:51:23;12.40;99.90
8850;DHT22;5638;50.860;4.698;2022-09-21T00:53:53;12.40;99.90
8850;DHT22;5638;50.860;4.698;2022-09-21T00:56:25;12.40;99.90
8850;DHT22;5638;50.860;4.698;2022-09-21T00:58:52;12.40;99.90
8850;DHT22;5638;50.860;4.698;2022-09-21T01:01:19;12.40;99.90
8850;DHT22;5638;50.860;4.698;2022-09-21T01:03:48;12.50;99.90
8850;DHT22;5638;50.860;4.698;2022-09-21T01:06:18;12.50;99.90
8850;DHT22;5638;50.860;4.698;2022-09-21T01:08:48;12.50;99.90
8850;DHT22;5638;50.860;4.698;2022-09-21T01:17:28;12.40;99.90
8850;DHT22;5638;50.860;4.698;2022-09-21T01:26:20;12.10;99.90
8850;DHT22;5638;50.860;4.698;2022-09-21T01:35:11;12.00;99.90
8850;DHT22;5638;50.860;4.698;2022-09-21T01:38:10;12.00;99.90
8850;DHT22;5638;50.860;4.698;2022-09-21T01:40:48;11.90;99.90
8850;DHT22;5638;50.860;4.698;2022-09-21T01:43:25;11.80;99.90
8850;DHT22;5638;50.860;4.698;2022-09-21T01:45:55;12.00;99.90
8850;DHT22;5638;50.860;4.698;2022-09-21T01:48:26;12.10;99.90
8850;DHT22;5638;50.860;4.698;2022-09-21T01:51:01;12.10;99.90
8850;DHT22;5638;50.860;4.698;2022-09-21T01:53:51;11.90;99.90
8850;DHT22;5638;50.860;4.698;2022-09-21T01:57:10;11.80;99.90
8850;DHT22;5638;50.860;4.698;2022-09-21T01:59:45;11.70;99.90
8850;DHT22;5638;50.860;4.698;2022-09-21T02:02:32;11.70;99.90
8850;DHT22;5638;50.860;4.698;2022-09-21T02:05:01;11.60;99.90
8850;DHT22;5638;50.860;4.698;2022-09-21T02:07:28;11.70;99.90
8850;DHT22;5638;50.860;4.698;2022-09-21T02:09:55;11.70;99.90
8850;DHT22;5638;50.860;4.698;2022-09-21T02:12:21;11.70;99.90
8850;DHT22;5638;50.860;4.698;2022-09-21T02:14:49;11.60;99.90
8850;DHT22;5638;50.860;4.698;2022-09-21T02:17:37;11.60;99.90
8850;DHT22;5638;50.860;4.698;2022-09-21T02:20:29;11.60;99.90
8850;DHT22;5638;50.860;4.698;2022-09-21T02:23:19;11.60;99.90
8850;DHT22;5638;50.860;4.698;2022-09-21T02:26:04;11.50;99.90
8850;DHT22;5638;50.860;4.698;2022-09-21T02:28:51;11.50;99.90
8850;DHT22;5638;50.860;4.698;2022-09-21T02:31:48;11.50;99.90
8850;DHT22;5638;50.860;4.698;2022-09-21T02:35:03;11.60;99.90
8850;DHT22;5638;50.860;4.698;2022-09-21T02:37:37;11.40;99.90
8850;DHT22;5638;50.860;4.698;2022-09-21T02:40:26;11.40;99.90
8850;DHT22;5638;50.860;4.698;2022-09-21T02:43:05;11.40;99.90
8850;DHT22;5638;50.860;4.698;2022-09-21T02:45:42;11.50;99.90
8850;DHT22;5638;50.860;4.698;2022-09-21T02:48:27;11.50;99.90
8850;DHT22;5638;50.860;4.698;2022-09-21T02:51:07;11.50;99.90
8850;DHT22;5638;50.860;4.698;2022-09-21T02:53:37;11.50;99.90
8850;DHT22;5638;50.860;4.698;2022-09-21T02:56:07;11.50;99.90
8850;DHT22;5638;50.860;4.698;2022-09-21T02:58:44;11.40;99.90
8850;DHT22;5638;50.860;4.698;2022-09-21T03:01:14;11.20;99.90
8850;DHT22;5638;50.860;4.698;2022-09-21T03:03:42;11.20;99.90
8850;DHT22;5638;50.860;4.698;2022-09-21T03:06:09;11.20;99.90
8850;DHT22;5638;50.860;4.698;2022-09-21T03:08:34;11.20;99.90
8850;DHT22;5638;50.860;4.698;2022-09-21T03:11:00;11.20;99.90
8850;DHT22;5638;50.860;4.698;2022-09-21T03:13:27;11.30;99.90
8850;DHT22;5638;50.860;4.698;2022-09-21T03:16:04;11.30;99.90
8850;DHT22;5638;50.860;4.698;2022-09-21T03:18:32;11.30;99.90
8850;DHT22;5638;50.860;4.698;2022-09-21T03:20:59;11.30;99.90
8850;DHT22;5638;50.860;4.698;2022-09-21T03:23:26;11.40;99.90
8850;DHT22;5638;50.860;4.698;2022-09-21T03:25:52;11.40;99.90
8850;DHT22;5638;50.860;4.698;2022-09-21T03:28:19;11.30;99.90
8850;DHT22;5638;50.860;4.698;2022-09-21T03:30:50;11.30;99.90
8850;DHT22;5638;50.860;4.698;2022-09-21T03:33:17;11.30;99.90
8850;DHT22;5638;50.860;4.698;2022-09-21T03:35:49;11.10;99.90
8850;DHT22;5638;50.860;4.698;2022-09-21T03:38:16;11.10;99.90
8850;DHT22;5638;50.860;4.698;2022-09-21T03:40:44;11.00;99.90
8850;DHT22;5638;50.860;4.698;2022-09-21T03:43:11;11.10;99.90
8850;DHT22;5638;50.860;4.698;2022-09-21T03:45:37;11.10;99.90
8850;DHT22;5638;50.860;4.698;2022-09-21T03:48:05;11.20;99.90
8850;DHT22;5638;50.860;4.698;2022-09-21T03:50:31;11.00;99.90
8850;DHT22;5638;50.860;4.698;2022-09-21T03:52:57;10.90;99.90
8850;DHT22;5638;50.860;4.698;2022-09-21T03:55:24;10.90;99.90
8850;DHT22;5638;50.860;4.698;2022-09-21T03:57:50;10.90;99.90
8850;DHT22;5638;50.860;4.698;2022-09-21T04:00:16;11.00;99.90
8850;DHT22;5638;50.860;4.698;2022-09-21T04:02:42;11.10;99.90
8850;DHT22;5638;50.860;4.698;2022-09-21T04:05:10;11.10;99.90
8850;DHT22;5638;50.860;4.698;2022-09-21T04:07:39;11.00;99.90
8850;DHT22;5638;50.860;4.698;2022-09-21T04:10:08;11.00;99.90
8850;DHT22;5638;50.860;4.698;2022-09-21T04:12:40;11.00;99.90
8850;DHT22;5638;50.860;4.698;2022-09-21T04:15:09;10.90;99.90
8850;DHT22;5638;50.860;4.698;2022-09-21T04:17:36;10.80;99.90
8850;DHT22;5638;50.860;4.698;2022-09-21T04:20:03;10.80;99.90
8850;DHT22;5638;50.860;4.698;2022-09-21T04:22:30;10.80;99.90
8850;DHT22;5638;50.860;4.698;2022-09-21T04:24:56;10.80;99.90
8850;DHT22;5638;50.860;4.698;2022-09-21T04:27:22;10.70;99.90
8850;DHT22;5638;50.860;4.698;2022-09-21T04:29:49;10.70;99.90
8850;DHT22;5638;50.860;4.698;2022-09-21T04:32:15;10.70;99.90
8850;DHT22;5638;50.860;4.698;2022-09-21T04:34:41;10.70;99.90
8850;DHT22;5638;50.860;4.698;2022-09-21T04:37:07;10.60;99.90
8850;DHT22;5638;50.860;4.698;2022-09-21T04:39:35;10.60;99.90
8850;DHT22;5638;50.860;4.698;2022-09-21T04:42:01;10.60;99.90
8850;DHT22;5638;50.860;4.698;2022-09-21T04:44:27;10.60;99.90
8850;DHT22;5638;50.860;4.698;2022-09-21T04:46:54;10.60;99.90
8850;DHT22;5638;50.860;4.698;2022-09-21T04:49:20;10.60;99.90
8850;DHT22;5638;50.860;4.698;2022-09-21T04:51:46;10.50;99.90
8850;DHT22;5638;50.860;4.698;2022-09-21T04:54:12;10.50;99.90
8850;DHT22;5638;50.860;4.698;2022-09-21T04:56:38;10.50;99.90
8850;DHT22;5638;50.860;4.698;2022-09-21T04:59:04;10.40;99.90
8850;DHT22;5638;50.860;4.698;2022-09-21T05:01:30;10.40;99.90
8850;DHT22;5638;50.860;4.698;2022-09-21T05:03:56;10.50;99.90
8850;DHT22;5638;50.860;4.698;2022-09-21T05:06:30;10.50;99.90
8850;DHT22;5638;50.860;4.698;2022-09-21T05:08:59;10.60;99.90
8850;DHT22;5638;50.860;4.698;2022-09-21T05:11:43;10.50;99.90
8850;DHT22;5638;50.860;4.698;2022-09-21T05:14:10;10.50;99.90
8850;DHT22;5638;50.860;4.698;2022-09-21T05:16:36;10.40;99.90
8850;DHT22;5638;50.860;4.698;2022-09-21T05:19:02;10.30;99.90
8850;DHT22;5638;50.860;4.698;2022-09-21T05:21:29;10.30;99.90
8850;DHT22;5638;50.860;4.698;2022-09-21T05:23:56;10.30;99.90
8850;DHT22;5638;50.860;4.698;2022-09-21T05:26:23;10.40;99.90
8850;DHT22;5638;50.860;4.698;2022-09-21T05:28:52;10.40;99.90
8850;DHT22;5638;50.860;4.698;2022-09-21T05:31:46;10.30;99.90
8850;DHT22;5638;50.860;4.698;2022-09-21T05:34:32;10.20;99.90
8850;DHT22;5638;50.860;4.698;2022-09-21T05:37:23;10.40;99.90
8850;DHT22;5638;50.860;4.698;2022-09-21T05:40:00;10.40;99.90
8850;DHT22;5638;50.860;4.698;2022-09-21T05:42:27;10.60;99.90
8850;DHT22;5638;50.860;4.698;2022-09-21T05:44:53;10.60;99.90
8850;DHT22;5638;50.860;4.698;2022-09-21T05:47:38;10.60;99.90
8850;DHT22;5638;50.860;4.698;2022-09-21T05:56:10;10.70;99.90
8850;DHT22;5638;50.860;4.698;2022-09-21T06:04:13;10.70;99.90
8850;DHT22;5638;50.860;4.698;2022-09-21T06:06:39;10.70;99.90
8850;DHT22;5638;50.860;4.698;2022-09-21T06:09:05;10.70;99.90
8850;DHT22;5638;50.860;4.698;2022-09-21T06:11:32;10.60;99.90
8850;DHT22;5638;50.860;4.698;2022-09-21T06:14:00;10.60;99.90
8850;DHT22;5638;50.860;4.698;2022-09-21T06:16:36;10.70;99.90
8850;DHT22;5638;50.860;4.698;2022-09-21T06:19:06;10.80;99.90
8850;DHT22;5638;50.860;4.698;2022-09-21T06:21:35;10.80;99.90
8850;DHT22;5638;50.860;4.698;2022-09-21T06:24:01;10.90;99.90
8850;DHT22;5638;50.860;4.698;2022-09-21T06:26:27;10.90;99.90
8850;DHT22;5638;50.860;4.698;2022-09-21T06:28:53;10.80;99.90
8850;DHT22;5638;50.860;4.698;2022-09-21T06:31:19;10.90;99.90
8850;DHT22;5638;50.860;4.698;2022-09-21T06:33:45;11.00;99.90
8850;DHT22;5638;50.860;4.698;2022-09-21T06:36:11;11.00;99.90
8850;DHT22;5638;50.860;4.698;2022-09-21T06:38:36;11.00;99.90
8850;DHT22;5638;50.860;4.698;2022-09-21T06:41:03;11.10;99.90
8850;DHT22;5638;50.860;4.698;2022-09-21T06:43:31;11.10;99.90
8850;DHT22;5638;50.860;4.698;2022-09-21T06:45:58;11.10;99.90
8850;DHT22;5638;50.860;4.698;2022-09-21T06:48:26;11.10;99.90
8850;DHT22;5638;50.860;4.698;2022-09-21T06:50:57;11.10;99.90
8850;DHT22;5638;50.860;4.698;2022-09-21T06:53:28;11.10;99.90
8850;DHT22;5638;50.860;4.698;2022-09-21T06:56:05;11.20;99.90
8850;DHT22;5638;50.860;4.698;2022-09-21T06:58:33;11.20;99.90
8850;DHT22;5638;50.860;4.698;2022-09-21T07:01:04;11.20;99.90
8850;DHT22;5638;50.860;4.698;2022-09-21T07:03:31;11.20;99.90
8850;DHT22;5638;50.860;4.698;2022-09-21T07:05:57;11.20;99.90
8850;DHT22;5638;50.860;4.698;2022-09-21T07:08:23;11.20;99.90
8850;DHT22;5638;50.860;4.698;2022-09-21T07:10:49;11.30;99.90
8850;DHT22;5638;50.860;4.698;2022-09-21T07:13:15;11.30;99.90
8850;DHT22;5638;50.860;4.698;2022-09-21T07:15:42;11.30;99.90
8850;DHT22;5638;50.860;4.698;2022-09-21T07:18:12;11.30;99.90
8850;DHT22;5638;50.860;4.698;2022-09-21T07:20:39;11.30;99.90
8850;DHT22;5638;50.860;4.698;2022-09-21T07:23:17;11.30;99.90
8850;DHT22;5638;50.860;4.698;2022-09-21T07:25:46;11.40;99.90
8850;DHT22;5638;50.860;4.698;2022-09-21T07:28:14;11.40;99.90
8850;DHT22;5638;50.860;4.698;2022-09-21T07:30:41;11.60;99.90
8850;DHT22;5638;50.860;4.698;2022-09-21T07:33:08;11.80;99.90
8850;DHT22;5638;50.860;4.698;2022-09-21T07:35:34;12.00;99.90
8850;DHT22;5638;50.860;4.698;2022-09-21T07:38:04;12.20;99.90
8850;DHT22;5638;50.860;4.698;2022-09-21T07:40:33;12.30;99.90
8850;DHT22;5638;50.860;4.698;2022-09-21T07:43:00;12.40;99.90
8850;DHT22;5638;50.860;4.698;2022-09-21T07:45:28;12.50;99.90
8850;DHT22;5638;50.860;4.698;2022-09-21T07:48:00;12.60;99.90
8850;DHT22;5638;50.860;4.698;2022-09-21T07:50:26;12.70;99.90
8850;DHT22;5638;50.860;4.698;2022-09-21T07:52:52;12.70;99.90
8850;DHT22;5638;50.860;4.698;2022-09-21T07:55:18;12.80;99.90
8850;DHT22;5638;50.860;4.698;2022-09-21T07:57:44;12.80;99.90
8850;DHT22;5638;50.860;4.698;2022-09-21T08:00:45;12.90;99.90
8850;DHT22;5638;50.860;4.698;2022-09-21T08:03:11;13.20;99.90
8850;DHT22;5638;50.860;4.698;2022-09-21T08:05:37;13.30;99.90
8850;DHT22;5638;50.860;4.698;2022-09-21T08:08:02;13.50;99.90
8850;DHT22;5638;50.860;4.698;2022-09-21T08:10:28;13.70;99.90
8850;DHT22;5638;50.860;4.698;2022-09-21T08:12:56;14.00;99.90
8850;DHT22;5638;50.860;4.698;2022-09-21T08:15:22;14.20;99.90
8850;DHT22;5638;50.860;4.698;2022-09-21T08:17:48;14.30;99.90
8850;DHT22;5638;50.860;4.698;2022-09-21T08:20:16;14.40;99.90
8850;DHT22;5638;50.860;4.698;2022-09-21T08:22:42;14.70;99.90
8850;DHT22;5638;50.860;4.698;2022-09-21T08:25:08;14.80;99.90
8850;DHT22;5638;50.860;4.698;2022-09-21T08:27:35;15.00;99.90
8850;DHT22;5638;50.860;4.698;2022-09-21T08:30:03;15.30;99.90
8850;DHT22;5638;50.860;4.698;2022-09-21T08:32:29;15.30;99.90
8850;DHT22;5638;50.860;4.698;2022-09-21T08:34:55;15.50;99.90
8850;DHT22;5638;50.860;4.698;2022-09-21T08:37:21;15.60;99.90
8850;DHT22;5638;50.860;4.698;2022-09-21T08:39:47;15.90;99.90
8850;DHT22;5638;50.860;4.698;2022-09-21T08:45:25;16.20;99.90
8850;DHT22;5638;50.860;4.698;2022-09-21T08:48:02;16.40;99.90
8850;DHT22;5638;50.860;4.698;2022-09-21T08:51:00;16.50;99.90
8850;DHT22;5638;50.860;4.698;2022-09-21T08:53:32;16.40;99.90
8850;DHT22;5638;50.860;4.698;2022-09-21T08:56:02;16.70;99.90
8850;DHT22;5638;50.860;4.698;2022-09-21T08:58:30;16.90;99.90
8850;DHT22;5638;50.860;4.698;2022-09-21T09:04:37;17.20;99.90
8850;DHT22;5638;50.860;4.698;2022-09-21T09:13:15;17.40;99.90
8850;DHT22;5638;50.860;4.698;2022-09-21T09:15:54;17.50;99.90
8850;DHT22;5638;50.860;4.698;2022-09-21T09:18:42;17.60;99.90
8850;DHT22;5638;50.860;4.698;2022-09-21T09:21:18;17.80;99.90
8850;DHT22;5638;50.860;4.698;2022-09-21T09:24:10;17.90;99.90
8850;DHT22;5638;50.860;4.698;2022-09-21T09:27:11;17.80;99.90
8850;DHT22;5638;50.860;4.698;2022-09-21T09:30:11;17.90;99.90
8850;DHT22;5638;50.860;4.698;2022-09-21T09:35:45;18.00;99.90
8850;DHT22;5638;50.860;4.698;2022-09-21T09:38:35;18.30;99.90
8850;DHT22;5638;50.860;4.698;2022-09-21T09:50:09;19.70;99.90
8850;DHT22;5638;50.860;4.698;2022-09-21T09:52:39;20.00;99.90
8850;DHT22;5638;50.860;4.698;2022-09-21T09:55:17;20.30;99.90
8850;DHT22;5638;50.860;4.698;2022-09-21T09:57:47;20.10;99.90
8850;DHT22;5638;50.860;4.698;2022-09-21T10:00:17;20.00;99.90
8850;DHT22;5638;50.860;4.698;2022-09-21T10:02:52;20.40;99.90
8850;DHT22;5638;50.860;4.698;2022-09-21T10:05:30;20.20;99.90
8850;DHT22;5638;50.860;4.698;2022-09-21T10:07:57;20.50;99.90
8850;DHT22;5638;50.860;4.698;2022-09-21T10:10:35;20.60;99.90
8850;DHT22;5638;50.860;4.698;2022-09-21T10:15:40;20.80;99.90
8850;DHT22;5638;50.860;4.698;2022-09-21T10:20:55;20.00;99.90
8850;DHT22;5638;50.860;4.698;2022-09-21T10:23:22;19.60;99.90
8850;DHT22;5638;50.860;4.698;2022-09-21T10:26:09;19.20;99.90
8850;DHT22;5638;50.860;4.698;2022-09-21T10:29:40;18.90;99.90
8850;DHT22;5638;50.860;4.698;2022-09-21T10:32:05;18.70;99.90
8850;DHT22;5638;50.860;4.698;2022-09-21T10:37:42;18.30;99.90
8850;DHT22;5638;50.860;4.698;2022-09-21T10:42:43;18.20;99.90
8850;DHT22;5638;50.860;4.698;2022-09-21T10:45:18;18.10;99.90
8850;DHT22;5638;50.860;4.698;2022-09-21T10:50:42;17.90;99.90
8850;DHT22;5638;50.860;4.698;2022-09-21T10:53:11;17.80;99.90
8850;DHT22;5638;50.860;4.698;2022-09-21T10:58:29;17.80;99.90
8850;DHT22;5638;50.860;4.698;2022-09-21T11:01:12;17.90;99.90
8850;DHT22;5638;50.860;4.698;2022-09-21T11:04:28;17.70;99.90
8850;DHT22;5638;50.860;4.698;2022-09-21T11:10:07;17.90;99.90
8850;DHT22;5638;50.860;4.698;2022-09-21T11:13:03;17.90;99.90
8850;DHT22;5638;50.860;4.698;2022-09-21T11:16:03;18.00;99.90
8850;DHT22;5638;50.860;4.698;2022-09-21T11:19:13;17.90;99.90
8850;DHT22;5638;50.860;4.698;2022-09-21T11:25:02;17.80;99.90
8850;DHT22;5638;50.860;4.698;2022-09-21T11:27:45;17.80;99.90
8850;DHT22;5638;50.860;4.698;2022-09-21T11:30:17;17.90;99.90
8850;DHT22;5638;50.860;4.698;2022-09-21T11:47:31;18.00;99.90
8850;DHT22;5638;50.860;4.698;2022-09-21T11:59:00;17.90;99.90
8850;DHT22;5638;50.860;4.698;2022-09-21T12:16:56;18.00;99.90
8850;DHT22;5638;50.860;4.698;2022-09-21T12:23:07;18.40;99.90
8850;DHT22;5638;50.860;4.698;2022-09-21T12:25:48;19.10;99.90
8850;DHT22;5638;50.860;4.698;2022-09-21T12:28:29;19.80;99.90
8850;DHT22;5638;50.860;4.698;2022-09-21T12:31:18;20.30;99.90
8850;DHT22;5638;50.860;4.698;2022-09-21T12:36:48;20.50;99.90
8850;DHT22;5638;50.860;4.698;2022-09-21T12:39:28;20.90;99.90
8850;DHT22;5638;50.860;4.698;2022-09-21T12:42:28;20.90;99.90
8850;DHT22;5638;50.860;4.698;2022-09-21T12:45:11;20.90;99.90
8850;DHT22;5638;50.860;4.698;2022-09-21T12:50:47;21.90;95.80
8850;DHT22;5638;50.860;4.698;2022-09-21T12:53:23;22.40;95.90
8850;DHT22;5638;50.860;4.698;2022-09-21T13:02:15;22.20;94.70
8850;DHT22;5638;50.860;4.698;2022-09-21T13:04:59;21.60;94.10
8850;DHT22;5638;50.860;4.698;2022-09-21T13:10:41;20.80;95.00
8850;DHT22;5638;50.860;4.698;2022-09-21T13:13:49;20.40;96.50
8850;DHT22;5638;50.860;4.698;2022-09-21T13:16:35;20.10;97.50
8850;DHT22;5638;50.860;4.698;2022-09-21T13:19:20;19.90;96.50
8850;DHT22;5638;50.860;4.698;2022-09-21T13:22:21;20.00;98.30
8850;DHT22;5638;50.860;4.698;2022-09-21T13:25:18;20.50;97.40
8850;DHT22;5638;50.860;4.698;2022-09-21T13:36:41;22.60;94.60
8850;DHT22;5638;50.860;4.698;2022-09-21T13:41:34;22.90;93.80
8850;DHT22;5638;50.860;4.698;2022-09-21T13:44:03;23.10;93.90
8850;DHT22;5638;50.860;4.698;2022-09-21T13:46:49;23.40;92.80
8850;DHT22;5638;50.860;4.698;2022-09-21T13:49:27;23.20;91.50
8850;DHT22;5638;50.860;4.698;2022-09-21T13:52:24;22.70;90.00
8850;DHT22;5638;50.860;4.698;2022-09-21T13:55:04;22.60;90.70
8850;DHT22;5638;50.860;4.698;2022-09-21T13:57:47;21.90;91.70
8850;DHT22;5638;50.860;4.698;2022-09-21T14:00:39;21.50;94.10
8850;DHT22;5638;50.860;4.698;2022-09-21T14:03:30;21.20;94.00
8850;DHT22;5638;50.860;4.698;2022-09-21T14:06:07;21.40;93.70
8850;DHT22;5638;50.860;4.698;2022-09-21T14:09:05;21.30;95.70
8850;DHT22;5638;50.860;4.698;2022-09-21T14:11:43;21.20;93.30
8850;DHT22;5638;50.860;4.698;2022-09-21T14:14:23;21.00;95.40
8850;DHT22;5638;50.860;4.698;2022-09-21T14:17:04;20.70;95.20
8850;DHT22;5638;50.860;4.698;2022-09-21T14:19:57;21.10;96.00
8850;DHT22;5638;50.860;4.698;2022-09-21T14:25:29;21.80;94.20
8850;DHT22;5638;50.860;4.698;2022-09-21T14:28:13;22.10;93.40
8850;DHT22;5638;50.860;4.698;2022-09-21T14:30:48;22.30;92.70
8850;DHT22;5638;50.860;4.698;2022-09-21T14:33:42;22.30;92.30
8850;DHT22;5638;50.860;4.698;2022-09-21T14:36:14;22.30;93.50
8850;DHT22;5638;50.860;4.698;2022-09-21T14:38:50;22.00;92.30
8850;DHT22;5638;50.860;4.698;2022-09-21T14:41:21;21.60;93.00
8850;DHT22;5638;50.860;4.698;2022-09-21T14:43:58;21.40;95.10
8850;DHT22;5638;50.860;4.698;2022-09-21T14:53:17;21.50;93.00
8850;DHT22;5638;50.860;4.698;2022-09-21T14:59:18;21.20;94.60
8850;DHT22;5638;50.860;4.698;2022-09-21T15:02:18;21.20;94.40
8850;DHT22;5638;50.860;4.698;2022-09-21T15:05:03;21.20;95.20
8850;DHT22;5638;50.860;4.698;2022-09-21T15:07:41;20.90;93.40
8850;DHT22;5638;50.860;4.698;2022-09-21T15:11:00;20.90;95.70
8850;DHT22;5638;50.860;4.698;2022-09-21T15:16:41;20.80;94.20
8850;DHT22;5638;50.860;4.698;2022-09-21T15:21:51;20.50;96.60
8850;DHT22;5638;50.860;4.698;2022-09-21T15:24:49;20.40;95.10
8850;DHT22;5638;50.860;4.698;2022-09-21T15:27:25;20.20;97.50
8850;DHT22;5638;50.860;4.698;2022-09-21T15:29:58;20.30;97.30
8850;DHT22;5638;50.860;4.698;2022-09-21T15:32:37;20.50;97.40
8850;DHT22;5638;50.860;4.698;2022-09-21T15:37:42;20.90;94.80
8850;DHT22;5638;50.860;4.698;2022-09-21T15:43:24;21.00;93.70
8850;DHT22;5638;50.860;4.698;2022-09-21T15:45:56;21.10;95.80
8850;DHT22;5638;50.860;4.698;2022-09-21T15:48:27;21.50;94.90
8850;DHT22;5638;50.860;4.698;2022-09-21T15:51:05;21.60;94.70
8850;DHT22;5638;50.860;4.698;2022-09-21T15:53:44;21.60;95.50
8850;DHT22;5638;50.860;4.698;2022-09-21T15:56:25;21.70;95.50
8850;DHT22;5638;50.860;4.698;2022-09-21T15:59:01;21.50;93.50
8850;DHT22;5638;50.860;4.698;2022-09-21T16:01:42;21.70;95.40
8850;DHT22;5638;50.860;4.698;2022-09-21T16:04:17;21.80;95.30
8850;DHT22;5638;50.860;4.698;2022-09-21T16:07:01;21.90;93.80
8850;DHT22;5638;50.860;4.698;2022-09-21T16:09:36;21.70;93.80
8850;DHT22;5638;50.860;4.698;2022-09-21T16:12:58;21.80;94.80
8850;DHT22;5638;50.860;4.698;2022-09-21T16:15:28;21.80;95.80
8850;DHT22;5638;50.860;4.698;2022-09-21T16:18:04;21.80;93.80
8850;DHT22;5638;50.860;4.698;2022-09-21T16:20:49;21.70;94.20
8850;DHT22;5638;50.860;4.698;2022-09-21T16:23:20;21.60;93.40
8850;DHT22;5638;50.860;4.698;2022-09-21T16:25:58;21.50;92.50
8850;DHT22;5638;50.860;4.698;2022-09-21T16:28:36;21.40;94.50
8850;DHT22;5638;50.860;4.698;2022-09-21T16:31:29;21.20;94.40
8850;DHT22;5638;50.860;4.698;2022-09-21T16:34:02;21.00;94.40
8850;DHT22;5638;50.860;4.698;2022-09-21T16:36:48;20.90;93.90
8850;DHT22;5638;50.860;4.698;2022-09-21T16:39:16;20.80;96.10
8850;DHT22;5638;50.860;4.698;2022-09-21T16:41:47;20.70;96.00
8850;DHT22;5638;50.860;4.698;2022-09-21T16:44:20;20.70;95.30
8850;DHT22;5638;50.860;4.698;2022-09-21T16:47:15;20.60;95.50
8850;DHT22;5638;50.860;4.698;2022-09-21T16:49:47;20.50;97.60
8850;DHT22;5638;50.860;4.698;2022-09-21T16:52:13;20.50;98.30
8850;DHT22;5638;50.860;4.698;2022-09-21T16:54:40;20.50;97.50
8850;DHT22;5638;50.860;4.698;2022-09-21T16:57:09;20.50;98.70
8850;DHT22;5638;50.860;4.698;2022-09-21T16:59:36;20.50;98.70
8850;DHT22;5638;50.860;4.698;2022-09-21T17:02:02;20.40;97.20
8850;DHT22;5638;50.860;4.698;2022-09-21T17:04:31;20.20;98.20
8850;DHT22;5638;50.860;4.698;2022-09-21T17:06:59;19.90;99.40
8850;DHT22;5638;50.860;4.698;2022-09-21T17:09:32;19.70;99.20
8850;DHT22;5638;50.860;4.698;2022-09-21T17:12:01;19.60;99.10
8850;DHT22;5638;50.860;4.698;2022-09-21T17:14:30;19.50;99.90
8850;DHT22;5638;50.860;4.698;2022-09-21T17:17:02;19.40;99.90
8850;DHT22;5638;50.860;4.698;2022-09-21T17:19:37;19.20;99.90
8850;DHT22;5638;50.860;4.698;2022-09-21T17:22:05;19.00;99.90
8850;DHT22;5638;50.860;4.698;2022-09-21T17:24:31;18.90;99.90
8850;DHT22;5638;50.860;4.698;2022-09-21T17:26:57;18.70;99.90
8850;DHT22;5638;50.860;4.698;2022-09-21T17:29:25;18.60;99.90
8850;DHT22;5638;50.860;4.698;2022-09-21T17:31:56;18.50;99.90
8850;DHT22;5638;50.860;4.698;2022-09-21T17:34:27;18.40;99.90
8850;DHT22;5638;50.860;4.698;2022-09-21T17:36:55;18.30;99.90
8850;DHT22;5638;50.860;4.698;2022-09-21T17:39:22;18.20;99.90
8850;DHT22;5638;50.860;4.698;2022-09-21T17:42:02;18.10;99.90
8850;DHT22;5638;50.860;4.698;2022-09-21T17:44:57;18.00;99.90
8850;DHT22;5638;50.860;4.698;2022-09-21T17:47:27;17.90;99.90
8850;DHT22;5638;50.860;4.698;2022-09-21T17:50:07;17.90;99.90
8850;DHT22;5638;50.860;4.698;2022-09-21T17:52:42;17.80;99.90
8850;DHT22;5638;50.860;4.698;2022-09-21T17:55:27;17.70;99.90
8850;DHT22;5638;50.860;4.698;2022-09-21T18:03:38;17.60;99.90
8850;DHT22;5638;50.860;4.698;2022-09-21T18:06:07;17.50;99.90
8850;DHT22;5638;50.860;4.698;2022-09-21T18:08:34;17.30;99.90
8850;DHT22;5638;50.860;4.698;2022-09-21T18:11:10;17.20;99.90
8850;DHT22;5638;50.860;4.698;2022-09-21T18:13:49;17.10;99.90
8850;DHT22;5638;50.860;4.698;2022-09-21T18:22:21;16.80;99.90
8850;DHT22;5638;50.860;4.698;2022-09-21T18:25:22;16.70;99.90
8850;DHT22;5638;50.860;4.698;2022-09-21T18:27:54;16.60;99.90
8850;DHT22;5638;50.860;4.698;2022-09-21T18:30:23;16.60;99.90
8850;DHT22;5638;50.860;4.698;2022-09-21T18:35:59;16.40;99.90
8850;DHT22;5638;50.860;4.698;2022-09-21T18:38:39;16.40;99.90
8850;DHT22;5638;50.860;4.698;2022-09-21T18:41:30;16.30;99.90
8850;DHT22;5638;50.860;4.698;2022-09-21T18:47:26;16.20;99.90
8850;DHT22;5638;50.860;4.698;2022-09-21T18:50:20;16.10;99.90
8850;DHT22;5638;50.860;4.698;2022-09-21T18:55:54;15.70;99.90
8850;DHT22;5638;50.860;4.698;2022-09-21T18:58:21;15.70;99.90
8850;DHT22;5638;50.860;4.698;2022-09-21T19:00:47;15.70;99.90
8850;DHT22;5638;50.860;4.698;2022-09-21T19:03:14;15.70;99.90
8850;DHT22;5638;50.860;4.698;2022-09-21T19:14:26;15.50;99.90
8850;DHT22;5638;50.860;4.698;2022-09-21T19:19:59;15.40;99.90
8850;DHT22;5638;50.860;4.698;2022-09-21T19:25:36;15.40;99.90
8850;DHT22;5638;50.860;4.698;2022-09-21T19:31:10;15.00;99.90
8850;DHT22;5638;50.860;4.698;2022-09-21T19:33:39;15.00;99.90
8850;DHT22;5638;50.860;4.698;2022-09-21T19:36:07;15.00;99.90
8850;DHT22;5638;50.860;4.698;2022-09-21T19:38:34;14.90;99.90
8850;DHT22;5638;50.860;4.698;2022-09-21T19:46:34;14.90;99.90
8850;DHT22;5638;50.860;4.698;2022-09-21T19:49:16;14.80;99.90
8850;DHT22;5638;50.860;4.698;2022-09-21T19:51:47;14.80;99.90
8850;DHT22;5638;50.860;4.698;2022-09-21T19:54:20;14.80;99.90
8850;DHT22;5638;50.860;4.698;2022-09-21T19:57:20;14.80;99.90
8850;DHT22;5638;50.860;4.698;2022-09-21T20:00:07;14.90;99.90
8850;DHT22;5638;50.860;4.698;2022-09-21T20:05:47;14.60;99.90
8850;DHT22;5638;50.860;4.698;2022-09-21T20:08:39;14.50;99.90
8850;DHT22;5638;50.860;4.698;2022-09-21T20:16:53;14.40;99.90
8850;DHT22;5638;50.860;4.698;2022-09-21T20:22:35;14.40;99.90
8850;DHT22;5638;50.860;4.698;2022-09-21T20:27:44;14.40;99.90
8850;DHT22;5638;50.860;4.698;2022-09-21T20:30:18;14.20;99.90
8850;DHT22;5638;50.860;4.698;2022-09-21T20:32:56;14.30;99.90
8850;DHT22;5638;50.860;4.698;2022-09-21T20:35:28;14.20;99.90
8850;DHT22;5638;50.860;4.698;2022-09-21T20:37:57;14.10;99.90
8850;DHT22;5638;50.860;4.698;2022-09-21T20:40:24;14.10;99.90
8850;DHT22;5638;50.860;4.698;2022-09-21T20:42:54;14.00;99.90